Aliquippa, Pennsylvania
Current Conditions -  °F | °C
As of 9:51 PM on Monday 26 Jan 2015 (Local Time) from KPIT Reporting Station
Overcast Overcast  
Wind Chill: -12°   Ceiling: 1400
Heat Index: -6°   Visibility: 10mi
Dew Point: -8°   Wind: 10mph
Humidity: 85%   Direction: 320°NW
Pressure: 29.84"   Gusts: NA
Location:  40.62°N, 80.24°W
Report Text: KPIT 270251Z 32009KT 10SM BKN014 OVC032 M06/M08 A2984 RMK AO2 SLP127 60000 T10611083 51012
Loading
Personal Weather Stations






























Interactive Weather Map New forecast layout! Learn more

10-Day Weather Forecast

Advertisements
Track Severe Weather on mobile